createdAt,value
2019-03-09T00:01:19.157Z,7.50
2019-03-09T00:03:47.767Z,7.50
2019-03-09T00:06:16.625Z,7.50
2019-03-09T00:08:45.480Z,7.40
2019-03-09T00:11:14.012Z,7.40
2019-03-09T00:13:42.473Z,7.40
2019-03-09T00:16:11.353Z,7.40
2019-03-09T00:18:41.748Z,7.40
2019-03-09T00:21:10.555Z,7.40
2019-03-09T00:23:52.548Z,7.40
2019-03-09T00:26:31.829Z,7.40
2019-03-09T00:29:02.419Z,7.40
2019-03-09T00:31:45.205Z,7.40
2019-03-09T00:34:13.932Z,7.30
2019-03-09T00:36:42.416Z,7.40
2019-03-09T00:39:12.676Z,7.30
2019-03-09T00:41:41.205Z,7.30
2019-03-09T00:44:11.081Z,7.30
2019-03-09T00:46:39.530Z,7.30
2019-03-09T00:49:08.385Z,7.40
2019-03-09T00:51:37.183Z,7.40
2019-03-09T00:54:08.191Z,7.40
2019-03-09T00:56:36.713Z,7.40
2019-03-09T00:59:05.607Z,7.40
2019-03-09T01:01:34.290Z,7.50
2019-03-09T01:04:04.553Z,7.50
2019-03-09T01:06:34.357Z,7.50
2019-03-09T01:09:03.424Z,7.50
2019-03-09T01:11:31.935Z,7.50
2019-03-09T01:14:00.712Z,7.50
2019-03-09T01:16:31.909Z,7.40
2019-03-09T01:19:00.771Z,7.50
2019-03-09T01:21:29.531Z,7.50
2019-03-09T01:23:59.311Z,7.50
2019-03-09T01:26:28.364Z,7.60
2019-03-09T01:28:56.874Z,7.50
2019-03-09T01:31:25.738Z,7.50
2019-03-09T01:33:54.533Z,7.60
2019-03-09T01:36:24.969Z,7.60
2019-03-09T01:38:55.995Z,7.60
2019-03-09T01:41:24.763Z,7.60
2019-03-09T01:43:53.529Z,7.50
2019-03-09T01:46:22.277Z,7.60
2019-03-09T01:48:50.808Z,7.60
2019-03-09T01:51:19.321Z,7.60
2019-03-09T01:53:47.827Z,7.60
2019-03-09T01:56:16.601Z,7.60
2019-03-09T01:58:45.383Z,7.60
2019-03-09T02:01:15.657Z,7.70
2019-03-09T02:03:44.353Z,7.60
2019-03-09T02:06:13.177Z,7.70
2019-03-09T02:08:41.896Z,7.70
2019-03-09T02:11:10.628Z,7.70
2019-03-09T02:13:39.435Z,7.70
2019-03-09T02:16:08.203Z,7.70
2019-03-09T02:18:37.939Z,7.70
2019-03-09T02:21:25.761Z,7.80
2019-03-09T02:23:54.457Z,7.80
2019-03-09T02:26:23.181Z,7.80
2019-03-09T02:28:52.969Z,7.80
2019-03-09T02:31:21.741Z,7.80
2019-03-09T02:33:50.466Z,7.80
2019-03-09T02:36:18.937Z,7.90
2019-03-09T02:38:50.420Z,7.90
2019-03-09T02:41:20.772Z,7.90
2019-03-09T02:43:49.557Z,7.90
2019-03-09T02:46:18.347Z,7.90
2019-03-09T02:48:46.792Z,8.00
2019-03-09T02:51:15.546Z,8.00
2019-03-09T02:53:44.305Z,8.00
2019-03-09T02:56:13.080Z,8.00
2019-03-09T02:58:41.644Z,8.00
2019-03-09T03:01:11.735Z,8.00
2019-03-09T03:03:40.545Z,8.00
2019-03-09T03:06:09.086Z,8.00
2019-03-09T03:08:40.377Z,8.00
2019-03-09T03:11:08.950Z,8.10
2019-03-09T03:13:37.417Z,8.10
2019-03-09T03:16:06.355Z,8.10
2019-03-09T03:18:35.403Z,8.10
2019-03-09T03:21:03.913Z,8.10
2019-03-09T03:23:32.828Z,8.10
2019-03-09T03:26:01.595Z,8.20
2019-03-09T03:28:30.133Z,8.20
2019-03-09T03:30:59.313Z,8.20
2019-03-09T03:33:28.178Z,8.20
2019-03-09T03:35:57.063Z,8.20
2019-03-09T03:38:25.513Z,8.20
2019-03-09T03:40:54.228Z,8.20
2019-03-09T03:43:22.740Z,8.30
2019-03-09T03:45:53.061Z,8.30
2019-03-09T03:48:21.590Z,8.30
2019-03-09T03:50:50.135Z,8.30
2019-03-09T03:53:18.575Z,8.30
2019-03-09T03:55:47.092Z,8.30
2019-03-09T03:58:15.709Z,8.30
2019-03-09T04:00:46.458Z,8.40
2019-03-09T04:03:14.960Z,8.40
2019-03-09T04:05:44.419Z,8.40
2019-03-09T04:08:13.564Z,8.40
2019-03-09T04:10:42.729Z,8.40
2019-03-09T04:13:11.634Z,8.50
2019-03-09T04:15:40.170Z,8.50
2019-03-09T04:18:08.974Z,8.50
2019-03-09T04:20:39.322Z,8.50
2019-03-09T04:23:09.337Z,8.50
2019-03-09T04:25:38.932Z,8.60
2019-03-09T04:28:08.259Z,8.60
2019-03-09T04:30:37.147Z,8.60
2019-03-09T04:33:05.932Z,8.60
2019-03-09T04:35:34.388Z,8.60
2019-03-09T04:38:04.090Z,8.60
2019-03-09T04:40:32.569Z,8.60
2019-03-09T04:43:01.290Z,8.60
2019-03-09T04:45:29.776Z,8.60
2019-03-09T04:47:59.860Z,8.60
2019-03-09T04:50:30.154Z,8.60
2019-03-09T04:52:58.594Z,8.60
2019-03-09T04:55:27.466Z,8.60
2019-03-09T04:57:56.239Z,8.60
2019-03-09T05:00:24.703Z,8.60
2019-03-09T05:02:53.301Z,8.60
2019-03-09T05:05:23.100Z,8.60
2019-03-09T05:08:00.492Z,8.60
2019-03-09T05:10:37.576Z,8.60
2019-03-09T05:13:09.747Z,8.50
2019-03-09T05:15:39.156Z,8.50
2019-03-09T05:18:09.583Z,8.50
2019-03-09T05:20:38.050Z,8.50
2019-03-09T05:23:07.756Z,8.50
2019-03-09T05:25:36.542Z,8.50
2019-03-09T05:28:05.010Z,8.50
2019-03-09T05:30:44.136Z,8.50
2019-03-09T05:33:12.699Z,8.50
2019-03-09T05:35:42.453Z,8.50
2019-03-09T05:38:12.437Z,8.50
2019-03-09T05:40:40.926Z,8.50
2019-03-09T05:43:09.634Z,8.50
2019-03-09T05:45:39.542Z,8.50
2019-03-09T05:48:08.098Z,8.50
2019-03-09T05:50:36.617Z,8.40
2019-03-09T05:53:14.053Z,8.40
2019-03-09T05:55:42.569Z,8.40
2019-03-09T05:58:12.755Z,8.40
2019-03-09T06:00:42.165Z,8.40
2019-03-09T06:03:10.986Z,8.40
2019-03-09T06:05:41.731Z,8.40
2019-03-09T06:08:10.188Z,8.40
2019-03-09T06:10:39.756Z,8.40
2019-03-09T06:13:10.526Z,8.50
2019-03-09T06:15:39.000Z,8.50
2019-03-09T06:18:09.009Z,8.50
2019-03-09T06:20:37.527Z,8.50
2019-03-09T06:23:06.049Z,8.50
2019-03-09T06:25:34.775Z,8.50
2019-03-09T06:28:03.267Z,8.60
2019-03-09T06:30:32.175Z,8.60
2019-03-09T06:33:17.590Z,8.60
2019-03-09T06:35:48.008Z,8.60
2019-03-09T06:38:28.781Z,8.60
2019-03-09T06:41:02.835Z,8.70
2019-03-09T06:43:28.033Z,8.70
2019-03-09T06:45:56.548Z,8.70
2019-03-09T06:48:25.400Z,8.80
2019-03-09T06:50:53.862Z,8.80
2019-03-09T06:53:22.689Z,8.80
2019-03-09T06:55:51.481Z,8.80
2019-03-09T06:58:20.377Z,8.80
2019-03-09T07:00:49.639Z,8.80
2019-03-09T07:03:18.453Z,8.90
2019-03-09T07:05:47.015Z,8.90
2019-03-09T07:08:15.833Z,8.90
2019-03-09T07:10:45.118Z,9.00
2019-03-09T07:13:13.886Z,9.00
2019-03-09T07:15:43.054Z,9.00
2019-03-09T07:18:13.877Z,9.00
2019-03-09T07:20:42.514Z,9.10
2019-03-09T07:23:11.209Z,9.10
2019-03-09T07:25:41.363Z,9.10
2019-03-09T07:28:11.978Z,9.10
2019-03-09T07:30:40.809Z,9.20
2019-03-09T07:33:09.384Z,9.20
2019-03-09T07:35:46.889Z,9.20
2019-03-09T07:38:12.652Z,9.30
2019-03-09T07:40:42.726Z,9.30
2019-03-09T07:43:11.529Z,9.30
2019-03-09T07:45:43.139Z,9.30
2019-03-09T07:48:11.945Z,9.30
2019-03-09T07:50:41.924Z,9.30
2019-03-09T07:53:13.449Z,9.30
2019-03-09T07:55:42.958Z,9.40
2019-03-09T07:58:11.814Z,9.40
2019-03-09T08:00:40.527Z,9.40
2019-03-09T08:03:09.231Z,9.40
2019-03-09T08:05:37.682Z,9.40
2019-03-09T08:08:08.379Z,9.50
2019-03-09T08:10:36.895Z,9.50
2019-03-09T08:13:06.806Z,9.50
2019-03-09T08:15:37.057Z,9.50
2019-03-09T08:18:05.689Z,9.50
2019-03-09T08:20:34.136Z,9.50
2019-03-09T08:23:02.911Z,9.60
2019-03-09T08:25:33.173Z,9.60
2019-03-09T08:28:01.749Z,9.60
2019-03-09T08:30:30.556Z,9.60
2019-03-09T08:32:59.100Z,9.60
2019-03-09T08:35:28.042Z,9.70
2019-03-09T08:37:57.418Z,9.70
2019-03-09T08:40:26.251Z,9.80
2019-03-09T08:42:56.075Z,9.80
2019-03-09T08:45:24.843Z,9.80
2019-03-09T08:47:54.235Z,9.80
2019-03-09T08:50:25.400Z,9.80
2019-03-09T08:52:53.922Z,9.90
2019-03-09T08:55:22.524Z,9.90
2019-03-09T08:57:51.042Z,9.90
2019-03-09T09:00:24.344Z,9.90
2019-03-09T09:02:53.208Z,9.90
2019-03-09T09:05:21.990Z,9.90
2019-03-09T09:07:50.460Z,9.90
2019-03-09T09:10:19.461Z,9.90
2019-03-09T09:12:51.426Z,10.00
2019-03-09T09:15:22.386Z,10.00
2019-03-09T09:17:51.245Z,10.00
2019-03-09T09:20:24.262Z,10.00
2019-03-09T09:22:52.783Z,10.10
2019-03-09T09:25:21.687Z,10.10
2019-03-09T09:27:52.051Z,10.10
2019-03-09T09:30:23.570Z,10.10
2019-03-09T09:32:52.128Z,10.20
2019-03-09T09:35:21.051Z,10.20
2019-03-09T09:37:49.859Z,10.30
2019-03-09T09:40:23.443Z,10.40
2019-03-09T09:42:53.281Z,10.50
2019-03-09T09:45:22.448Z,10.60
2019-03-09T09:47:51.341Z,10.60
2019-03-09T09:50:20.210Z,10.70
2019-03-09T09:52:51.184Z,10.80
2019-03-09T09:55:20.445Z,10.90
2019-03-09T09:57:50.172Z,11.00
2019-03-09T10:00:28.670Z,11.00
2019-03-09T10:02:57.196Z,11.00
2019-03-09T10:05:26.106Z,11.10
2019-03-09T10:07:54.600Z,11.00
2019-03-09T10:10:24.356Z,11.00
2019-03-09T10:12:52.886Z,11.00
2019-03-09T10:15:24.185Z,11.00
2019-03-09T10:17:54.292Z,10.90
2019-03-09T10:20:22.989Z,10.90
2019-03-09T10:22:51.673Z,10.80
2019-03-09T10:25:22.256Z,10.80
2019-03-09T10:27:50.970Z,10.80
2019-03-09T10:30:21.177Z,10.80
2019-03-09T10:32:49.637Z,10.80
2019-03-09T10:35:18.469Z,10.80
2019-03-09T10:37:47.745Z,10.80
2019-03-09T10:40:16.740Z,10.80
2019-03-09T10:42:45.270Z,10.80
2019-03-09T10:45:15.978Z,10.80
2019-03-09T10:47:44.776Z,10.90
2019-03-09T10:50:17.125Z,10.90
2019-03-09T10:52:45.687Z,11.10
2019-03-09T10:55:22.625Z,11.20
2019-03-09T10:57:51.677Z,11.40
2019-03-09T11:00:23.893Z,11.70
2019-03-09T11:02:52.345Z,11.90
2019-03-09T11:05:20.918Z,12.00
2019-03-09T11:07:49.916Z,12.10
2019-03-09T11:10:18.661Z,12.30
2019-03-09T11:12:50.614Z,12.70
2019-03-09T11:15:19.076Z,12.90
2019-03-09T11:17:47.789Z,12.70
2019-03-09T11:20:18.395Z,12.80
2019-03-09T11:22:47.972Z,12.70
2019-03-09T11:25:16.739Z,12.50
2019-03-09T11:27:45.285Z,12.30
2019-03-09T11:30:16.544Z,12.20
2019-03-09T11:32:46.780Z,12.10
2019-03-09T11:35:15.604Z,12.10
2019-03-09T11:37:44.485Z,12.00
2019-03-09T11:40:13.529Z,12.00
2019-03-09T11:42:42.000Z,12.20
2019-03-09T11:45:13.775Z,12.30
2019-03-09T11:47:42.228Z,12.30
2019-03-09T11:50:13.213Z,12.30
2019-03-09T11:52:41.982Z,12.30
2019-03-09T11:55:12.109Z,12.30
2019-03-09T11:57:40.561Z,12.30
2019-03-09T12:00:15.931Z,12.20
2019-03-09T12:02:47.587Z,12.20
2019-03-09T12:05:16.039Z,12.20
2019-03-09T12:07:44.824Z,12.10
2019-03-09T12:10:13.980Z,11.90
2019-03-09T12:12:43.942Z,11.80
2019-03-09T12:15:20.913Z,11.60
2019-03-09T12:17:50.729Z,11.50
2019-03-09T12:20:21.382Z,11.30
2019-03-09T12:22:50.149Z,11.20
2019-03-09T12:25:19.127Z,11.10
2019-03-09T12:27:47.721Z,11.00
2019-03-09T12:30:17.641Z,10.80
2019-03-09T12:32:46.463Z,10.70
2019-03-09T12:35:15.578Z,10.60
2019-03-09T12:37:44.143Z,10.50
2019-03-09T12:40:20.672Z,10.50
2019-03-09T12:42:49.532Z,10.60
2019-03-09T12:45:18.772Z,10.60
2019-03-09T12:47:47.318Z,10.70
2019-03-09T12:50:19.187Z,10.70
2019-03-09T12:52:48.002Z,10.70
2019-03-09T12:55:16.549Z,10.80
2019-03-09T12:57:45.371Z,10.80
2019-03-09T13:00:24.921Z,10.80
2019-03-09T13:02:55.053Z,10.90
2019-03-09T13:05:23.524Z,10.90
2019-03-09T13:07:53.808Z,10.90
2019-03-09T13:10:22.562Z,10.90
2019-03-09T13:12:51.392Z,10.90
2019-03-09T13:15:20.169Z,10.90
2019-03-09T13:17:48.793Z,10.80
2019-03-09T13:20:18.165Z,10.70
2019-03-09T13:22:47.004Z,10.60
2019-03-09T13:25:21.563Z,10.60
2019-03-09T13:27:50.280Z,10.40
2019-03-09T13:30:23.474Z,10.20
2019-03-09T13:32:52.047Z,10.10
2019-03-09T13:35:20.856Z,10.00
2019-03-09T13:37:49.395Z,10.00
2019-03-09T13:40:17.940Z,10.00
2019-03-09T13:42:47.578Z,10.00
2019-03-09T13:45:17.266Z,10.10
2019-03-09T13:47:46.044Z,10.10
2019-03-09T13:50:18.326Z,10.20
2019-03-09T13:52:46.878Z,10.30
2019-03-09T13:55:15.329Z,10.50
2019-03-09T13:57:43.780Z,10.60
2019-03-09T14:00:18.004Z,10.70
2019-03-09T14:02:48.033Z,10.70
2019-03-09T14:05:16.556Z,10.70
2019-03-09T14:07:45.429Z,10.80
2019-03-09T14:10:17.304Z,10.80
2019-03-09T14:12:47.488Z,10.80
2019-03-09T14:15:17.966Z,10.80
2019-03-09T14:17:48.879Z,10.80
2019-03-09T14:20:17.762Z,10.80
2019-03-09T14:22:46.343Z,10.80
2019-03-09T14:25:15.634Z,10.90
2019-03-09T14:27:44.356Z,10.90
2019-03-09T14:30:17.587Z,11.00
2019-03-09T14:32:46.374Z,11.00
2019-03-09T14:35:14.963Z,11.10
2019-03-09T14:37:43.692Z,11.20
2019-03-09T14:40:15.824Z,11.30
2019-03-09T14:42:44.597Z,11.30
2019-03-09T14:45:18.198Z,11.40
2019-03-09T14:47:47.113Z,11.70
2019-03-09T14:50:17.519Z,11.80
2019-03-09T14:52:48.891Z,11.80
2019-03-09T14:55:17.633Z,11.80
2019-03-09T14:57:46.078Z,11.80
2019-03-09T15:00:25.924Z,11.80
2019-03-09T15:02:54.425Z,11.80
2019-03-09T15:05:23.558Z,11.70
2019-03-09T15:07:52.456Z,11.80
2019-03-09T15:10:21.560Z,11.80
2019-03-09T15:12:50.403Z,11.80
2019-03-09T15:15:23.022Z,11.80
2019-03-09T15:17:51.780Z,11.80
2019-03-09T15:20:20.578Z,11.80
2019-03-09T15:22:49.148Z,11.70
2019-03-09T15:25:19.053Z,11.70
2019-03-09T15:27:50.207Z,11.80
2019-03-09T15:30:20.752Z,11.90
2019-03-09T15:32:49.279Z,12.10
2019-03-09T15:35:18.027Z,12.20
2019-03-09T15:37:46.910Z,12.30
2019-03-09T15:40:18.145Z,12.30
2019-03-09T15:42:46.668Z,12.40
2019-03-09T15:45:17.301Z,12.40
2019-03-09T15:47:46.246Z,12.30
2019-03-09T15:50:19.064Z,12.30
2019-03-09T15:52:48.034Z,12.20
2019-03-09T15:55:16.585Z,12.10
2019-03-09T15:57:45.467Z,12.10
2019-03-09T16:00:20.032Z,12.00
2019-03-09T16:02:48.830Z,12.00
2019-03-09T16:05:17.274Z,11.80
2019-03-09T16:07:46.192Z,11.70
2019-03-09T16:10:16.359Z,11.70
2019-03-09T16:12:45.796Z,11.70
2019-03-09T16:15:15.513Z,11.60
2019-03-09T16:17:44.208Z,11.50
2019-03-09T16:20:16.703Z,11.50
2019-03-09T16:22:45.250Z,11.50
2019-03-09T16:25:18.393Z,11.50
2019-03-09T16:27:48.358Z,11.40
2019-03-09T16:30:23.435Z,11.40
2019-03-09T16:32:51.979Z,11.40
2019-03-09T16:35:20.753Z,11.40
2019-03-09T16:37:50.989Z,11.30
2019-03-09T16:40:22.975Z,11.30
2019-03-09T16:42:51.417Z,11.20
2019-03-09T16:45:19.971Z,11.20
2019-03-09T16:47:49.701Z,11.20
2019-03-09T16:50:22.131Z,11.20
2019-03-09T16:52:52.569Z,11.10
2019-03-09T16:55:21.290Z,11.00
2019-03-09T16:57:49.818Z,11.00
2019-03-09T17:00:20.881Z,10.90
2019-03-09T17:02:51.152Z,10.90
2019-03-09T17:05:19.788Z,10.90
2019-03-09T17:07:48.339Z,10.80
2019-03-09T17:10:19.326Z,10.80
2019-03-09T17:12:48.037Z,10.70
2019-03-09T17:15:21.699Z,10.70
2019-03-09T17:17:50.491Z,10.70
2019-03-09T17:20:19.480Z,10.60
2019-03-09T17:22:52.043Z,10.60
2019-03-09T17:25:21.075Z,10.60
2019-03-09T17:27:50.995Z,10.50
2019-03-09T17:30:22.932Z,10.50
2019-03-09T17:32:51.406Z,10.40
2019-03-09T17:35:19.922Z,10.40
2019-03-09T17:37:48.456Z,10.30
2019-03-09T17:40:18.112Z,10.30
2019-03-09T17:42:46.899Z,10.20
2019-03-09T17:45:20.394Z,10.10
2019-03-09T17:47:50.580Z,10.10
2019-03-09T17:50:19.023Z,10.00
2019-03-09T17:52:49.250Z,10.00
2019-03-09T17:55:18.116Z,9.90
2019-03-09T17:57:46.854Z,9.90
2019-03-09T18:00:27.294Z,9.80
2019-03-09T18:02:58.642Z,9.70
2019-03-09T18:05:27.368Z,9.70
2019-03-09T18:07:57.684Z,9.60
2019-03-09T18:10:47.659Z,9.60
2019-03-09T18:13:16.454Z,9.50
2019-03-09T18:15:47.799Z,9.50
2019-03-09T18:18:19.900Z,9.40
2019-03-09T18:20:49.714Z,9.30
2019-03-09T18:23:19.802Z,9.30
2019-03-09T18:25:49.615Z,9.30
2019-03-09T18:28:18.144Z,9.20
2019-03-09T18:30:46.660Z,9.20
2019-03-09T18:33:15.146Z,9.10
2019-03-09T18:35:43.630Z,9.10
2019-03-09T18:38:12.425Z,9.10
2019-03-09T18:40:40.869Z,9.10
2019-03-09T18:43:10.884Z,9.10
2019-03-09T18:45:40.272Z,9.10
2019-03-09T18:48:08.996Z,9.00
2019-03-09T18:50:37.721Z,9.00
2019-03-09T18:53:08.038Z,9.00
2019-03-09T18:55:36.676Z,8.90
2019-03-09T18:58:05.696Z,8.90
2019-03-09T19:00:34.577Z,8.90
2019-03-09T19:03:03.391Z,8.90
2019-03-09T19:05:32.165Z,8.80
2019-03-09T19:08:00.921Z,8.80
2019-03-09T19:10:29.402Z,8.70
2019-03-09T19:12:57.886Z,8.70
2019-03-09T19:15:26.588Z,8.70
2019-03-09T19:17:55.093Z,8.70
2019-03-09T19:20:24.766Z,8.70
2019-03-09T19:22:53.561Z,8.70
2019-03-09T19:25:21.999Z,8.70
2019-03-09T19:27:50.810Z,8.60
2019-03-09T19:30:20.674Z,8.60
2019-03-09T19:32:59.643Z,8.60
2019-03-09T19:35:19.503Z,8.60
2019-03-09T19:37:47.962Z,8.50
2019-03-09T19:40:18.288Z,8.50
2019-03-09T19:42:47.062Z,8.50
2019-03-09T19:45:18.666Z,8.50
2019-03-09T19:47:50.112Z,8.50
2019-03-09T19:50:20.129Z,8.50
2019-03-09T19:52:48.957Z,8.50
2019-03-09T19:55:17.756Z,8.40
2019-03-09T19:57:48.508Z,8.40
2019-03-09T20:00:18.825Z,8.40
2019-03-09T20:02:47.751Z,8.40
2019-03-09T20:05:18.294Z,8.40
2019-03-09T20:07:46.786Z,8.40
2019-03-09T20:10:20.421Z,8.40
2019-03-09T20:12:48.958Z,8.40
2019-03-09T20:15:19.814Z,8.50
2019-03-09T20:17:48.347Z,8.40
2019-03-09T20:20:20.425Z,8.40
2019-03-09T20:22:51.973Z,8.40
2019-03-09T20:25:20.902Z,8.40
2019-03-09T20:27:51.174Z,8.40
2019-03-09T20:30:23.465Z,8.40
2019-03-09T20:32:51.921Z,8.40
2019-03-09T20:35:20.368Z,8.40
2019-03-09T20:37:49.099Z,8.40
2019-03-09T20:40:23.454Z,8.40
2019-03-09T20:42:52.213Z,8.40
2019-03-09T20:45:22.047Z,8.40
2019-03-09T20:47:50.926Z,8.40
2019-03-09T20:50:21.959Z,8.40
2019-03-09T20:52:50.745Z,8.40
2019-03-09T20:55:19.554Z,8.40
2019-03-09T20:57:50.087Z,8.40
2019-03-09T21:00:22.728Z,8.40
2019-03-09T21:02:51.183Z,8.40
2019-03-09T21:05:19.635Z,8.40
2019-03-09T21:07:51.055Z,8.40
2019-03-09T21:10:20.633Z,8.40
2019-03-09T21:12:56.833Z,8.40
2019-03-09T21:15:25.733Z,8.40
2019-03-09T21:17:54.651Z,8.40
2019-03-09T21:20:23.156Z,8.40
2019-03-09T21:22:52.057Z,8.40
2019-03-09T21:25:22.400Z,8.40
2019-03-09T21:27:50.972Z,8.40
2019-03-09T21:30:19.489Z,8.40
2019-03-09T21:32:48.350Z,8.50
2019-03-09T21:35:16.998Z,8.40
2019-03-09T21:37:45.701Z,8.40
2019-03-09T21:40:14.301Z,8.50
2019-03-09T21:42:42.764Z,8.40
2019-03-09T21:45:13.709Z,8.50
2019-03-09T21:47:42.161Z,8.40
2019-03-09T21:50:14.921Z,8.40
2019-03-09T21:52:43.696Z,8.40
2019-03-09T21:55:13.449Z,8.40
2019-03-09T21:57:41.985Z,8.40
2019-03-09T22:00:16.200Z,8.40
2019-03-09T22:02:44.650Z,8.40
2019-03-09T22:05:13.746Z,8.30
2019-03-09T22:07:43.585Z,8.30
2019-03-09T22:10:13.256Z,8.30
2019-03-09T22:12:42.165Z,8.30
2019-03-09T22:15:17.635Z,8.30
2019-03-09T22:17:47.559Z,8.20
2019-03-09T22:20:16.298Z,8.20
2019-03-09T22:22:58.091Z,8.20
2019-03-09T22:25:26.957Z,8.20
2019-03-09T22:27:56.931Z,8.20
2019-03-09T22:30:25.699Z,8.20
2019-03-09T22:32:54.557Z,8.10
2019-03-09T22:35:23.324Z,8.10
2019-03-09T22:37:51.791Z,8.10
2019-03-09T22:40:20.907Z,8.10
2019-03-09T22:42:49.351Z,8.10
2019-03-09T22:45:19.839Z,8.10
2019-03-09T22:47:48.386Z,8.10
2019-03-09T22:50:21.383Z,8.10
2019-03-09T22:52:50.098Z,8.20
2019-03-09T22:55:18.728Z,8.20
2019-03-09T22:57:47.256Z,8.20
2019-03-09T23:00:23.514Z,8.20
2019-03-09T23:02:51.986Z,8.20
2019-03-09T23:05:20.870Z,8.20
2019-03-09T23:07:49.329Z,8.20
2019-03-09T23:10:20.103Z,8.20
2019-03-09T23:12:48.560Z,8.20
2019-03-09T23:15:20.415Z,8.20
2019-03-09T23:17:50.181Z,8.20
2019-03-09T23:20:20.249Z,8.20
2019-03-09T23:22:49.156Z,8.20
2019-03-09T23:25:17.741Z,8.20
2019-03-09T23:27:46.508Z,8.20
2019-03-09T23:30:20.007Z,8.20
2019-03-09T23:32:51.184Z,8.20
2019-03-09T23:35:20.740Z,8.20
2019-03-09T23:37:53.309Z,8.20
2019-03-09T23:40:24.200Z,8.20
2019-03-09T23:42:52.712Z,8.30
2019-03-09T23:45:23.107Z,8.30
2019-03-09T23:47:51.782Z,8.30
2019-03-09T23:50:26.465Z,8.30
2019-03-09T23:52:55.474Z,8.30
2019-03-09T23:55:24.467Z,8.30
2019-03-09T23:57:53.241Z,8.30
